sensor_id;sensor_type;location;lat;lon;timestamp;temperature;humidity
20432;DHT22;10375;49.136;10.366;2023-04-25T00:02:25;7.70;99.90
20432;DHT22;10375;49.136;10.366;2023-04-25T00:04:52;7.70;99.90
20432;DHT22;10375;49.136;10.366;2023-04-25T00:07:20;7.70;99.90
20432;DHT22;10375;49.136;10.366;2023-04-25T00:09:47;7.60;99.90
20432;DHT22;10375;49.136;10.366;2023-04-25T00:12:14;7.60;99.90
20432;DHT22;10375;49.136;10.366;2023-04-25T00:14:42;7.50;99.90
20432;DHT22;10375;49.136;10.366;2023-04-25T00:17:09;7.50;99.90
20432;DHT22;10375;49.136;10.366;2023-04-25T00:19:38;7.40;99.90
20432;DHT22;10375;49.136;10.366;2023-04-25T00:22:05;7.30;99.90
20432;DHT22;10375;49.136;10.366;2023-04-25T00:24:32;7.30;99.90
20432;DHT22;10375;49.136;10.366;2023-04-25T00:26:59;7.20;99.90
20432;DHT22;10375;49.136;10.366;2023-04-25T00:29:26;7.10;99.90
20432;DHT22;10375;49.136;10.366;2023-04-25T00:31:53;7.10;99.90
20432;DHT22;10375;49.136;10.366;2023-04-25T00:34:20;7.00;99.90
20432;DHT22;10375;49.136;10.366;2023-04-25T00:36:47;7.00;99.90
20432;DHT22;10375;49.136;10.366;2023-04-25T00:39:14;7.00;99.90
20432;DHT22;10375;49.136;10.366;2023-04-25T00:41:41;7.00;99.90
20432;DHT22;10375;49.136;10.366;2023-04-25T00:44:10;7.00;99.90
20432;DHT22;10375;49.136;10.366;2023-04-25T00:46:39;7.00;99.90
20432;DHT22;10375;49.136;10.366;2023-04-25T00:49:07;6.90;99.90
20432;DHT22;10375;49.136;10.366;2023-04-25T00:51:34;7.00;99.90
20432;DHT22;10375;49.136;10.366;2023-04-25T00:54:02;7.00;99.90
20432;DHT22;10375;49.136;10.366;2023-04-25T00:56:29;7.10;99.90
20432;DHT22;10375;49.136;10.366;2023-04-25T00:58:57;7.10;99.90
20432;DHT22;10375;49.136;10.366;2023-04-25T01:01:24;7.10;99.90
20432;DHT22;10375;49.136;10.366;2023-04-25T01:03:52;7.10;99.90
20432;DHT22;10375;49.136;10.366;2023-04-25T01:06:21;7.00;99.90
20432;DHT22;10375;49.136;10.366;2023-04-25T01:08:49;6.90;99.90
20432;DHT22;10375;49.136;10.366;2023-04-25T01:11:16;6.90;99.90
20432;DHT22;10375;49.136;10.366;2023-04-25T01:13:43;6.90;99.90
20432;DHT22;10375;49.136;10.366;2023-04-25T01:16:11;6.90;99.90
20432;DHT22;10375;49.136;10.366;2023-04-25T01:18:41;6.90;99.90
20432;DHT22;10375;49.136;10.366;2023-04-25T01:21:11;7.00;99.90
20432;DHT22;10375;49.136;10.366;2023-04-25T01:23:41;7.00;99.90
20432;DHT22;10375;49.136;10.366;2023-04-25T01:26:10;7.00;99.90
20432;DHT22;10375;49.136;10.366;2023-04-25T01:28:39;7.10;99.90
20432;DHT22;10375;49.136;10.366;2023-04-25T01:31:08;7.20;99.90
20432;DHT22;10375;49.136;10.366;2023-04-25T01:33:36;7.20;99.90
20432;DHT22;10375;49.136;10.366;2023-04-25T01:36:03;7.30;99.90
20432;DHT22;10375;49.136;10.366;2023-04-25T01:38:31;7.30;99.90
20432;DHT22;10375;49.136;10.366;2023-04-25T01:40:58;7.30;99.90
20432;DHT22;10375;49.136;10.366;2023-04-25T01:43:26;7.30;99.90
20432;DHT22;10375;49.136;10.366;2023-04-25T01:45:53;7.20;99.90
20432;DHT22;10375;49.136;10.366;2023-04-25T01:48:20;7.30;99.90
20432;DHT22;10375;49.136;10.366;2023-04-25T01:50:47;7.20;99.90
20432;DHT22;10375;49.136;10.366;2023-04-25T01:53:15;7.20;99.90
20432;DHT22;10375;49.136;10.366;2023-04-25T01:55:42;7.20;99.90
20432;DHT22;10375;49.136;10.366;2023-04-25T01:58:09;7.20;99.90
20432;DHT22;10375;49.136;10.366;2023-04-25T02:00:39;7.20;99.90
20432;DHT22;10375;49.136;10.366;2023-04-25T02:03:08;7.20;99.90
20432;DHT22;10375;49.136;10.366;2023-04-25T02:05:39;7.20;99.90
20432;DHT22;10375;49.136;10.366;2023-04-25T02:08:08;7.20;99.90
20432;DHT22;10375;49.136;10.366;2023-04-25T02:10:36;7.20;99.90
20432;DHT22;10375;49.136;10.366;2023-04-25T02:13:03;7.10;99.90
20432;DHT22;10375;49.136;10.366;2023-04-25T02:15:32;7.10;99.90
20432;DHT22;10375;49.136;10.366;2023-04-25T02:17:59;7.10;99.90
20432;DHT22;10375;49.136;10.366;2023-04-25T02:20:30;7.10;99.90
20432;DHT22;10375;49.136;10.366;2023-04-25T02:22:57;7.10;99.90
20432;DHT22;10375;49.136;10.366;2023-04-25T02:25:24;7.10;99.90
20432;DHT22;10375;49.136;10.366;2023-04-25T02:27:51;7.10;99.90
20432;DHT22;10375;49.136;10.366;2023-04-25T02:30:18;7.10;99.90
20432;DHT22;10375;49.136;10.366;2023-04-25T02:32:46;7.10;99.90
20432;DHT22;10375;49.136;10.366;2023-04-25T02:35:13;7.10;99.90
20432;DHT22;10375;49.136;10.366;2023-04-25T02:37:42;7.10;99.90
20432;DHT22;10375;49.136;10.366;2023-04-25T02:40:10;7.10;99.90
20432;DHT22;10375;49.136;10.366;2023-04-25T02:42:37;7.10;99.90
20432;DHT22;10375;49.136;10.366;2023-04-25T02:45:04;7.00;99.90
20432;DHT22;10375;49.136;10.366;2023-04-25T02:47:32;7.00;99.90
20432;DHT22;10375;49.136;10.366;2023-04-25T02:49:59;7.00;99.90
20432;DHT22;10375;49.136;10.366;2023-04-25T02:52:26;7.00;99.90
20432;DHT22;10375;49.136;10.366;2023-04-25T02:54:53;6.90;99.90
20432;DHT22;10375;49.136;10.366;2023-04-25T02:57:20;6.90;99.90
20432;DHT22;10375;49.136;10.366;2023-04-25T02:59:47;6.90;99.90
20432;DHT22;10375;49.136;10.366;2023-04-25T03:02:14;6.90;99.90
20432;DHT22;10375;49.136;10.366;2023-04-25T03:04:41;6.80;99.90
20432;DHT22;10375;49.136;10.366;2023-04-25T03:07:08;6.80;99.90
20432;DHT22;10375;49.136;10.366;2023-04-25T03:09:36;6.80;99.90
20432;DHT22;10375;49.136;10.366;2023-04-25T03:12:03;6.80;99.90
20432;DHT22;10375;49.136;10.366;2023-04-25T03:14:30;6.70;99.90
20432;DHT22;10375;49.136;10.366;2023-04-25T03:16:57;6.70;99.90
20432;DHT22;10375;49.136;10.366;2023-04-25T03:19:24;6.70;99.90
20432;DHT22;10375;49.136;10.366;2023-04-25T03:21:51;6.60;99.90
20432;DHT22;10375;49.136;10.366;2023-04-25T03:24:18;6.60;99.90
20432;DHT22;10375;49.136;10.366;2023-04-25T03:26:46;6.60;99.90
20432;DHT22;10375;49.136;10.366;2023-04-25T03:29:13;6.50;99.90
20432;DHT22;10375;49.136;10.366;2023-04-25T03:31:40;6.50;99.90
20432;DHT22;10375;49.136;10.366;2023-04-25T03:34:07;6.60;99.90
20432;DHT22;10375;49.136;10.366;2023-04-25T03:36:35;6.60;99.90
20432;DHT22;10375;49.136;10.366;2023-04-25T03:39:02;6.50;99.90
20432;DHT22;10375;49.136;10.366;2023-04-25T03:41:29;6.50;99.90
20432;DHT22;10375;49.136;10.366;2023-04-25T03:43:56;6.60;99.90
20432;DHT22;10375;49.136;10.366;2023-04-25T03:46:23;6.60;99.90
20432;DHT22;10375;49.136;10.366;2023-04-25T03:48:50;6.70;99.90
20432;DHT22;10375;49.136;10.366;2023-04-25T03:51:17;6.80;99.90
20432;DHT22;10375;49.136;10.366;2023-04-25T03:53:44;6.80;99.90
20432;DHT22;10375;49.136;10.366;2023-04-25T03:56:12;6.80;99.90
20432;DHT22;10375;49.136;10.366;2023-04-25T03:58:39;6.80;99.90
20432;DHT22;10375;49.136;10.366;2023-04-25T04:01:06;6.90;99.90
20432;DHT22;10375;49.136;10.366;2023-04-25T04:03:35;6.90;99.90
20432;DHT22;10375;49.136;10.366;2023-04-25T04:06:04;6.90;99.90
20432;DHT22;10375;49.136;10.366;2023-04-25T04:08:33;6.90;99.90
20432;DHT22;10375;49.136;10.366;2023-04-25T04:11:00;7.00;99.90
20432;DHT22;10375;49.136;10.366;2023-04-25T04:13:28;7.00;99.90
20432;DHT22;10375;49.136;10.366;2023-04-25T04:15:55;7.00;99.90
20432;DHT22;10375;49.136;10.366;2023-04-25T04:18:23;7.00;99.90
20432;DHT22;10375;49.136;10.366;2023-04-25T04:20:50;7.10;99.90
20432;DHT22;10375;49.136;10.366;2023-04-25T04:23:17;7.10;99.90
20432;DHT22;10375;49.136;10.366;2023-04-25T04:25:44;7.10;99.90
20432;DHT22;10375;49.136;10.366;2023-04-25T04:28:11;7.10;99.90
20432;DHT22;10375;49.136;10.366;2023-04-25T04:30:39;7.10;99.90
20432;DHT22;10375;49.136;10.366;2023-04-25T04:33:08;7.10;99.90
20432;DHT22;10375;49.136;10.366;2023-04-25T04:35:36;7.10;99.90
20432;DHT22;10375;49.136;10.366;2023-04-25T04:38:03;7.00;99.90
20432;DHT22;10375;49.136;10.366;2023-04-25T04:40:30;6.90;99.90
20432;DHT22;10375;49.136;10.366;2023-04-25T04:43:00;6.90;99.90
20432;DHT22;10375;49.136;10.366;2023-04-25T04:45:27;6.90;99.90
20432;DHT22;10375;49.136;10.366;2023-04-25T04:47:54;6.90;99.90
20432;DHT22;10375;49.136;10.366;2023-04-25T04:50:22;6.90;99.90
20432;DHT22;10375;49.136;10.366;2023-04-25T04:52:49;6.90;99.90
20432;DHT22;10375;49.136;10.366;2023-04-25T04:55:17;7.00;99.90
20432;DHT22;10375;49.136;10.366;2023-04-25T04:57:44;7.10;99.90
20432;DHT22;10375;49.136;10.366;2023-04-25T05:00:11;7.10;99.90
20432;DHT22;10375;49.136;10.366;2023-04-25T05:02:39;7.10;99.90
20432;DHT22;10375;49.136;10.366;2023-04-25T05:05:06;7.20;99.90
20432;DHT22;10375;49.136;10.366;2023-04-25T05:07:34;7.20;99.90
20432;DHT22;10375;49.136;10.366;2023-04-25T05:10:02;7.30;99.90
20432;DHT22;10375;49.136;10.366;2023-04-25T05:12:30;7.30;99.90
20432;DHT22;10375;49.136;10.366;2023-04-25T05:14:57;7.40;99.90
20432;DHT22;10375;49.136;10.366;2023-04-25T05:17:24;7.50;99.90
20432;DHT22;10375;49.136;10.366;2023-04-25T05:19:51;7.50;99.90
20432;DHT22;10375;49.136;10.366;2023-04-25T05:22:18;7.70;99.90
20432;DHT22;10375;49.136;10.366;2023-04-25T05:24:45;8.00;99.90
20432;DHT22;10375;49.136;10.366;2023-04-25T05:27:13;8.10;99.90
20432;DHT22;10375;49.136;10.366;2023-04-25T05:29:40;8.20;99.90
20432;DHT22;10375;49.136;10.366;2023-04-25T05:32:07;8.20;99.90
20432;DHT22;10375;49.136;10.366;2023-04-25T05:34:35;8.20;99.90
20432;DHT22;10375;49.136;10.366;2023-04-25T05:37:02;8.10;99.90
20432;DHT22;10375;49.136;10.366;2023-04-25T05:39:29;8.00;99.90
20432;DHT22;10375;49.136;10.366;2023-04-25T05:41:56;8.00;99.90
20432;DHT22;10375;49.136;10.366;2023-04-25T05:44:23;8.00;99.90
20432;DHT22;10375;49.136;10.366;2023-04-25T05:46:51;7.90;99.90
20432;DHT22;10375;49.136;10.366;2023-04-25T05:49:18;7.90;99.90
20432;DHT22;10375;49.136;10.366;2023-04-25T05:51:45;7.90;99.90
20432;DHT22;10375;49.136;10.366;2023-04-25T05:54:12;7.90;99.90
20432;DHT22;10375;49.136;10.366;2023-04-25T05:56:41;7.80;99.90
20432;DHT22;10375;49.136;10.366;2023-04-25T05:59:08;7.80;99.90
20432;DHT22;10375;49.136;10.366;2023-04-25T06:01:35;7.80;99.90
20432;DHT22;10375;49.136;10.366;2023-04-25T06:04:02;7.70;99.90
20432;DHT22;10375;49.136;10.366;2023-04-25T06:06:31;7.70;99.90
20432;DHT22;10375;49.136;10.366;2023-04-25T06:08:58;7.70;99.90
20432;DHT22;10375;49.136;10.366;2023-04-25T06:11:26;7.70;99.90
20432;DHT22;10375;49.136;10.366;2023-04-25T06:13:53;7.70;99.90
20432;DHT22;10375;49.136;10.366;2023-04-25T06:16:21;7.70;99.90
20432;DHT22;10375;49.136;10.366;2023-04-25T06:18:48;7.70;99.90
20432;DHT22;10375;49.136;10.366;2023-04-25T06:21:15;7.70;99.90
20432;DHT22;10375;49.136;10.366;2023-04-25T06:23:43;7.70;99.90
20432;DHT22;10375;49.136;10.366;2023-04-25T06:26:10;7.70;99.90
20432;DHT22;10375;49.136;10.366;2023-04-25T06:28:37;7.60;99.90
20432;DHT22;10375;49.136;10.366;2023-04-25T06:31:04;7.60;99.90
20432;DHT22;10375;49.136;10.366;2023-04-25T06:33:31;7.40;99.90
20432;DHT22;10375;49.136;10.366;2023-04-25T06:35:58;7.30;99.90
20432;DHT22;10375;49.136;10.366;2023-04-25T06:38:25;7.30;99.90
20432;DHT22;10375;49.136;10.366;2023-04-25T06:40:52;7.30;99.90
20432;DHT22;10375;49.136;10.366;2023-04-25T06:43:20;7.30;99.90
20432;DHT22;10375;49.136;10.366;2023-04-25T06:45:47;7.30;99.90
20432;DHT22;10375;49.136;10.366;2023-04-25T06:48:14;7.30;99.90
20432;DHT22;10375;49.136;10.366;2023-04-25T06:50:42;7.30;99.90
20432;DHT22;10375;49.136;10.366;2023-04-25T06:53:09;7.40;99.90
20432;DHT22;10375;49.136;10.366;2023-04-25T06:55:38;7.50;99.90
20432;DHT22;10375;49.136;10.366;2023-04-25T06:58:05;7.50;99.90
20432;DHT22;10375;49.136;10.366;2023-04-25T07:00:33;7.50;99.90
20432;DHT22;10375;49.136;10.366;2023-04-25T07:03:01;7.50;99.90
20432;DHT22;10375;49.136;10.366;2023-04-25T07:05:28;7.50;99.90
20432;DHT22;10375;49.136;10.366;2023-04-25T07:07:55;7.50;99.90
20432;DHT22;10375;49.136;10.366;2023-04-25T07:10:22;7.60;99.90
20432;DHT22;10375;49.136;10.366;2023-04-25T07:12:49;7.60;99.90
20432;DHT22;10375;49.136;10.366;2023-04-25T07:15:16;7.70;99.90
20432;DHT22;10375;49.136;10.366;2023-04-25T07:17:44;7.70;99.90
20432;DHT22;10375;49.136;10.366;2023-04-25T07:20:11;7.80;99.90
20432;DHT22;10375;49.136;10.366;2023-04-25T07:22:38;7.80;99.90
20432;DHT22;10375;49.136;10.366;2023-04-25T07:25:06;7.90;99.90
20432;DHT22;10375;49.136;10.366;2023-04-25T07:27:33;8.00;99.90
20432;DHT22;10375;49.136;10.366;2023-04-25T07:30:00;8.00;99.90
20432;DHT22;10375;49.136;10.366;2023-04-25T07:32:28;8.10;99.90
20432;DHT22;10375;49.136;10.366;2023-04-25T07:34:55;8.20;99.90
20432;DHT22;10375;49.136;10.366;2023-04-25T07:37:22;8.30;99.90
20432;DHT22;10375;49.136;10.366;2023-04-25T07:39:49;8.50;99.90
20432;DHT22;10375;49.136;10.366;2023-04-25T07:42:17;8.80;99.90
20432;DHT22;10375;49.136;10.366;2023-04-25T07:44:44;9.00;99.90
20432;DHT22;10375;49.136;10.366;2023-04-25T07:47:11;9.00;99.90
20432;DHT22;10375;49.136;10.366;2023-04-25T07:49:39;8.90;99.90
20432;DHT22;10375;49.136;10.366;2023-04-25T07:52:09;8.80;99.90
20432;DHT22;10375;49.136;10.366;2023-04-25T07:54:37;8.80;99.90
20432;DHT22;10375;49.136;10.366;2023-04-25T07:57:04;8.90;99.90
20432;DHT22;10375;49.136;10.366;2023-04-25T07:59:33;8.90;99.90
20432;DHT22;10375;49.136;10.366;2023-04-25T08:02:00;9.00;99.90
20432;DHT22;10375;49.136;10.366;2023-04-25T08:04:28;9.10;99.90
20432;DHT22;10375;49.136;10.366;2023-04-25T08:06:55;9.20;99.90
20432;DHT22;10375;49.136;10.366;2023-04-25T08:09:23;9.50;99.90
20432;DHT22;10375;49.136;10.366;2023-04-25T08:11:51;9.80;99.90
20432;DHT22;10375;49.136;10.366;2023-04-25T08:14:18;9.90;99.90
20432;DHT22;10375;49.136;10.366;2023-04-25T08:16:45;10.30;99.90
20432;DHT22;10375;49.136;10.366;2023-04-25T08:19:12;10.70;99.90
20432;DHT22;10375;49.136;10.366;2023-04-25T08:21:40;11.10;99.90
20432;DHT22;10375;49.136;10.366;2023-04-25T08:24:07;11.20;99.90
20432;DHT22;10375;49.136;10.366;2023-04-25T08:26:34;11.40;99.90
20432;DHT22;10375;49.136;10.366;2023-04-25T08:29:04;11.60;99.90
20432;DHT22;10375;49.136;10.366;2023-04-25T08:31:32;12.00;99.90
20432;DHT22;10375;49.136;10.366;2023-04-25T08:33:59;12.20;99.90
20432;DHT22;10375;49.136;10.366;2023-04-25T08:36:26;12.20;99.90
20432;DHT22;10375;49.136;10.366;2023-04-25T08:39:05;12.00;99.90
20432;DHT22;10375;49.136;10.366;2023-04-25T08:41:36;11.80;99.90
20432;DHT22;10375;49.136;10.366;2023-04-25T08:44:03;11.60;99.90
20432;DHT22;10375;49.136;10.366;2023-04-25T08:46:32;11.40;99.90
20432;DHT22;10375;49.136;10.366;2023-04-25T08:49:01;11.30;99.90
20432;DHT22;10375;49.136;10.366;2023-04-25T08:51:31;11.40;99.90
20432;DHT22;10375;49.136;10.366;2023-04-25T08:54:12;11.80;99.90
20432;DHT22;10375;49.136;10.366;2023-04-25T08:56:47;12.10;99.90
20432;DHT22;10375;49.136;10.366;2023-04-25T08:59:14;12.10;99.90
20432;DHT22;10375;49.136;10.366;2023-04-25T09:01:41;11.90;99.90
20432;DHT22;10375;49.136;10.366;2023-04-25T09:04:09;11.50;99.90
20432;DHT22;10375;49.136;10.366;2023-04-25T09:06:36;11.10;99.90
20432;DHT22;10375;49.136;10.366;2023-04-25T09:09:05;10.90;99.90
20432;DHT22;10375;49.136;10.366;2023-04-25T09:11:34;10.60;99.90
20432;DHT22;10375;49.136;10.366;2023-04-25T09:22:07;10.40;99.90
20432;DHT22;10375;49.136;10.366;2023-04-25T09:24:41;10.80;99.90
20432;DHT22;10375;49.136;10.366;2023-04-25T09:27:12;11.50;99.90
20432;DHT22;10375;49.136;10.366;2023-04-25T09:29:40;12.20;99.90
20432;DHT22;10375;49.136;10.366;2023-04-25T09:32:20;12.70;99.90
20432;DHT22;10375;49.136;10.366;2023-04-25T09:34:52;13.30;99.90
20432;DHT22;10375;49.136;10.366;2023-04-25T09:37:28;13.80;99.90
20432;DHT22;10375;49.136;10.366;2023-04-25T09:39:58;14.60;99.90
20432;DHT22;10375;49.136;10.366;2023-04-25T09:42:27;15.50;99.90
20432;DHT22;10375;49.136;10.366;2023-04-25T09:44:56;16.00;99.90
20432;DHT22;10375;49.136;10.366;2023-04-25T09:47:25;16.10;99.90
20432;DHT22;10375;49.136;10.366;2023-04-25T09:49:53;16.10;99.90
20432;DHT22;10375;49.136;10.366;2023-04-25T09:52:24;16.10;99.90
20432;DHT22;10375;49.136;10.366;2023-04-25T09:54:52;16.10;99.90
20432;DHT22;10375;49.136;10.366;2023-04-25T09:57:20;15.90;99.90
20432;DHT22;10375;49.136;10.366;2023-04-25T09:59:52;15.50;99.90
20432;DHT22;10375;49.136;10.366;2023-04-25T10:02:22;14.90;99.90
20432;DHT22;10375;49.136;10.366;2023-04-25T10:04:52;14.30;99.90
20432;DHT22;10375;49.136;10.366;2023-04-25T10:07:27;13.60;99.90
20432;DHT22;10375;49.136;10.366;2023-04-25T10:10:00;13.00;99.90
20432;DHT22;10375;49.136;10.366;2023-04-25T10:12:32;12.40;99.90
20432;DHT22;10375;49.136;10.366;2023-04-25T10:15:00;11.90;99.90
20432;DHT22;10375;49.136;10.366;2023-04-25T10:17:28;11.40;99.90
20432;DHT22;10375;49.136;10.366;2023-04-25T10:19:56;11.10;99.90
20432;DHT22;10375;49.136;10.366;2023-04-25T10:22:31;10.90;99.90
20432;DHT22;10375;49.136;10.366;2023-04-25T10:25:00;10.80;99.90
20432;DHT22;10375;49.136;10.366;2023-04-25T10:27:31;10.90;99.90
20432;DHT22;10375;49.136;10.366;2023-04-25T10:32:33;12.00;99.90
20432;DHT22;10375;49.136;10.366;2023-04-25T10:35:29;12.70;99.90
20432;DHT22;10375;49.136;10.366;2023-04-25T10:38:04;13.40;99.90
20432;DHT22;10375;49.136;10.366;2023-04-25T10:40:32;14.00;99.90
20432;DHT22;10375;49.136;10.366;2023-04-25T10:46:02;14.70;99.90
20432;DHT22;10375;49.136;10.366;2023-04-25T10:48:31;15.00;99.90
20432;DHT22;10375;49.136;10.366;2023-04-25T10:51:11;15.10;99.90
20432;DHT22;10375;49.136;10.366;2023-04-25T10:53:38;15.30;99.90
20432;DHT22;10375;49.136;10.366;2023-04-25T10:56:28;15.40;99.90
20432;DHT22;10375;49.136;10.366;2023-04-25T10:59:10;15.40;99.90
20432;DHT22;10375;49.136;10.366;2023-04-25T11:01:42;15.60;99.90
20432;DHT22;10375;49.136;10.366;2023-04-25T11:09:34;15.30;99.90
20432;DHT22;10375;49.136;10.366;2023-04-25T11:12:02;15.40;99.90
20432;DHT22;10375;49.136;10.366;2023-04-25T11:14:29;15.50;99.90
20432;DHT22;10375;49.136;10.366;2023-04-25T11:16:57;15.30;99.90
20432;DHT22;10375;49.136;10.366;2023-04-25T11:19:27;15.10;99.90
20432;DHT22;10375;49.136;10.366;2023-04-25T11:21:59;14.90;99.90
20432;DHT22;10375;49.136;10.366;2023-04-25T11:24:31;15.00;99.90
20432;DHT22;10375;49.136;10.366;2023-04-25T11:26:59;15.10;99.90
20432;DHT22;10375;49.136;10.366;2023-04-25T11:29:27;15.10;99.50
20432;DHT22;10375;49.136;10.366;2023-04-25T11:31:55;15.00;99.10
20432;DHT22;10375;49.136;10.366;2023-04-25T11:34:25;15.00;99.40
20432;DHT22;10375;49.136;10.366;2023-04-25T11:36:53;14.80;99.60
20432;DHT22;10375;49.136;10.366;2023-04-25T11:39:20;14.60;99.50
20432;DHT22;10375;49.136;10.366;2023-04-25T11:41:48;14.50;99.90
20432;DHT22;10375;49.136;10.366;2023-04-25T11:44:16;14.50;99.90
20432;DHT22;10375;49.136;10.366;2023-04-25T11:46:44;14.50;99.90
20432;DHT22;10375;49.136;10.366;2023-04-25T11:49:12;14.60;99.80
20432;DHT22;10375;49.136;10.366;2023-04-25T11:51:47;14.80;99.90
20432;DHT22;10375;49.136;10.366;2023-04-25T11:54:15;14.80;99.10
20432;DHT22;10375;49.136;10.366;2023-04-25T11:56:45;14.70;99.70
20432;DHT22;10375;49.136;10.366;2023-04-25T11:59:13;14.60;99.00
20432;DHT22;10375;49.136;10.366;2023-04-25T12:01:47;14.50;99.70
20432;DHT22;10375;49.136;10.366;2023-04-25T12:04:19;14.30;99.40
20432;DHT22;10375;49.136;10.366;2023-04-25T12:06:49;14.20;99.40
20432;DHT22;10375;49.136;10.366;2023-04-25T12:09:28;14.20;98.90
20432;DHT22;10375;49.136;10.366;2023-04-25T12:11:57;14.50;99.90
20432;DHT22;10375;49.136;10.366;2023-04-25T12:14:32;15.10;97.90
20432;DHT22;10375;49.136;10.366;2023-04-25T12:17:03;15.20;95.00
20432;DHT22;10375;49.136;10.366;2023-04-25T12:19:37;14.70;95.30
20432;DHT22;10375;49.136;10.366;2023-04-25T12:22:22;14.70;99.10
20432;DHT22;10375;49.136;10.366;2023-04-25T12:24:50;15.10;99.80
20432;DHT22;10375;49.136;10.366;2023-04-25T12:27:17;15.50;98.00
20432;DHT22;10375;49.136;10.366;2023-04-25T12:29:54;16.00;98.50
20432;DHT22;10375;49.136;10.366;2023-04-25T12:32:21;16.50;95.30
20432;DHT22;10375;49.136;10.366;2023-04-25T12:34:49;16.60;91.90
20432;DHT22;10375;49.136;10.366;2023-04-25T12:37:16;15.90;92.70
20432;DHT22;10375;49.136;10.366;2023-04-25T12:39:43;15.40;95.90
20432;DHT22;10375;49.136;10.366;2023-04-25T12:42:10;15.30;96.20
20432;DHT22;10375;49.136;10.366;2023-04-25T12:44:40;15.10;95.90
20432;DHT22;10375;49.136;10.366;2023-04-25T12:47:08;14.70;95.40
20432;DHT22;10375;49.136;10.366;2023-04-25T12:49:35;14.50;97.20
20432;DHT22;10375;49.136;10.366;2023-04-25T12:52:02;14.30;96.50
20432;DHT22;10375;49.136;10.366;2023-04-25T12:54:29;14.20;97.30
20432;DHT22;10375;49.136;10.366;2023-04-25T12:56:57;14.00;96.90
20432;DHT22;10375;49.136;10.366;2023-04-25T12:59:24;13.90;97.60
20432;DHT22;10375;49.136;10.366;2023-04-25T13:01:51;13.80;98.00
20432;DHT22;10375;49.136;10.366;2023-04-25T13:04:18;13.90;97.50
20432;DHT22;10375;49.136;10.366;2023-04-25T13:06:48;14.00;97.60
20432;DHT22;10375;49.136;10.366;2023-04-25T13:09:15;14.10;97.70
20432;DHT22;10375;49.136;10.366;2023-04-25T13:11:42;14.20;97.60
20432;DHT22;10375;49.136;10.366;2023-04-25T13:14:09;14.40;97.60
20432;DHT22;10375;49.136;10.366;2023-04-25T13:16:37;14.40;96.60
20432;DHT22;10375;49.136;10.366;2023-04-25T13:19:04;14.40;97.10
20432;DHT22;10375;49.136;10.366;2023-04-25T13:21:32;14.40;98.10
20432;DHT22;10375;49.136;10.366;2023-04-25T13:23:59;14.30;98.50
20432;DHT22;10375;49.136;10.366;2023-04-25T13:26:26;14.00;97.20
20432;DHT22;10375;49.136;10.366;2023-04-25T13:28:53;13.70;97.50
20432;DHT22;10375;49.136;10.366;2023-04-25T13:31:20;13.50;98.40
20432;DHT22;10375;49.136;10.366;2023-04-25T13:33:48;13.20;98.60
20432;DHT22;10375;49.136;10.366;2023-04-25T13:36:15;12.90;98.10
20432;DHT22;10375;49.136;10.366;2023-04-25T13:38:42;12.70;98.80
20432;DHT22;10375;49.136;10.366;2023-04-25T13:41:12;12.70;98.50
20432;DHT22;10375;49.136;10.366;2023-04-25T13:43:45;12.60;99.10
20432;DHT22;10375;49.136;10.366;2023-04-25T13:46:15;12.60;98.60
20432;DHT22;10375;49.136;10.366;2023-04-25T13:49:05;12.70;99.80
20432;DHT22;10375;49.136;10.366;2023-04-25T13:51:39;12.90;99.90
20432;DHT22;10375;49.136;10.366;2023-04-25T13:54:07;13.40;99.90
20432;DHT22;10375;49.136;10.366;2023-04-25T13:56:34;14.00;99.10
20432;DHT22;10375;49.136;10.366;2023-04-25T13:59:01;14.50;98.90
20432;DHT22;10375;49.136;10.366;2023-04-25T14:01:28;14.80;98.10
20432;DHT22;10375;49.136;10.366;2023-04-25T14:03:58;14.90;95.60
20432;DHT22;10375;49.136;10.366;2023-04-25T14:06:25;14.80;97.60
20432;DHT22;10375;49.136;10.366;2023-04-25T14:08:54;14.80;96.50
20432;DHT22;10375;49.136;10.366;2023-04-25T14:11:21;14.60;96.70
20432;DHT22;10375;49.136;10.366;2023-04-25T14:13:48;14.40;96.70
20432;DHT22;10375;49.136;10.366;2023-04-25T14:16:16;14.10;96.50
20432;DHT22;10375;49.136;10.366;2023-04-25T14:18:44;13.70;97.30
20432;DHT22;10375;49.136;10.366;2023-04-25T14:21:11;13.50;98.50
20432;DHT22;10375;49.136;10.366;2023-04-25T14:23:38;13.40;99.30
20432;DHT22;10375;49.136;10.366;2023-04-25T14:26:05;13.30;99.00
20432;DHT22;10375;49.136;10.366;2023-04-25T14:28:32;13.10;99.40
20432;DHT22;10375;49.136;10.366;2023-04-25T14:30:59;13.10;99.90
20432;DHT22;10375;49.136;10.366;2023-04-25T14:33:27;13.20;99.90
20432;DHT22;10375;49.136;10.366;2023-04-25T14:35:54;13.20;99.90
20432;DHT22;10375;49.136;10.366;2023-04-25T14:38:21;13.30;99.90
20432;DHT22;10375;49.136;10.366;2023-04-25T14:40:52;13.00;99.90
20432;DHT22;10375;49.136;10.366;2023-04-25T14:43:20;12.60;99.90
20432;DHT22;10375;49.136;10.366;2023-04-25T14:45:47;12.00;99.90
20432;DHT22;10375;49.136;10.366;2023-04-25T14:48:15;11.30;99.90
20432;DHT22;10375;49.136;10.366;2023-04-25T14:50:43;11.00;99.90
20432;DHT22;10375;49.136;10.366;2023-04-25T14:53:10;10.80;99.90
20432;DHT22;10375;49.136;10.366;2023-04-25T14:55:38;10.70;99.90
20432;DHT22;10375;49.136;10.366;2023-04-25T14:58:05;10.60;99.90
20432;DHT22;10375;49.136;10.366;2023-04-25T15:00:32;10.50;99.90
20432;DHT22;10375;49.136;10.366;2023-04-25T15:03:00;10.40;99.90
20432;DHT22;10375;49.136;10.366;2023-04-25T15:05:27;10.20;99.90
20432;DHT22;10375;49.136;10.366;2023-04-25T15:07:54;9.90;99.90
20432;DHT22;10375;49.136;10.366;2023-04-25T15:10:22;9.80;99.90
20432;DHT22;10375;49.136;10.366;2023-04-25T15:12:49;9.60;99.90
20432;DHT22;10375;49.136;10.366;2023-04-25T15:15:17;9.60;99.90
20432;DHT22;10375;49.136;10.366;2023-04-25T15:17:52;9.60;99.90
20432;DHT22;10375;49.136;10.366;2023-04-25T15:20:25;9.50;99.90
20432;DHT22;10375;49.136;10.366;2023-04-25T15:22:52;9.60;99.90
20432;DHT22;10375;49.136;10.366;2023-04-25T15:25:19;9.80;99.90
20432;DHT22;10375;49.136;10.366;2023-04-25T15:27:46;9.80;99.90
20432;DHT22;10375;49.136;10.366;2023-04-25T15:30:16;9.80;99.90
20432;DHT22;10375;49.136;10.366;2023-04-25T15:32:44;9.90;99.90
20432;DHT22;10375;49.136;10.366;2023-04-25T15:35:13;9.90;99.90
20432;DHT22;10375;49.136;10.366;2023-04-25T15:37:41;10.00;99.90
20432;DHT22;10375;49.136;10.366;2023-04-25T15:40:11;9.90;99.90
20432;DHT22;10375;49.136;10.366;2023-04-25T15:42:41;9.80;99.90
20432;DHT22;10375;49.136;10.366;2023-04-25T15:45:10;9.40;99.90
20432;DHT22;10375;49.136;10.366;2023-04-25T15:47:38;9.20;99.90
20432;DHT22;10375;49.136;10.366;2023-04-25T15:50:07;9.20;99.90
20432;DHT22;10375;49.136;10.366;2023-04-25T15:52:36;9.10;99.90